Terminal Aerodrome Forecast
Issued by NWS

Home | Current Version | Previous Version | Text Only | Print | Product List | Glossary On
Versions: 1 2 3 4 5 6 7 8 9 10 11 12 13 14 15 16 17 18 19
000
FTUS41 KGYX 300903 AAB
TAFLEB
TAF AMD
KLEB 300903Z 3009/3106 00000KT P6SM SCT080
      TEMPO 3010/3012 5SM BR
     FM301200 33004KT P6SM SCT100=

USA.gov is the U.S. government's official web portal to all federal, state and local government web resources and services.